sensor_id;sensor_type;location;lat;lon;timestamp;P1;durP1;ratioP1;P2;durP2;ratioP2
6547;SDS011;3307;52.416;16.862;2023-06-10T00:01:37;10.43;;;7.40;;
6547;SDS011;3307;52.416;16.862;2023-06-10T00:04:02;8.33;;;6.93;;
6547;SDS011;3307;52.416;16.862;2023-06-10T00:06:29;9.10;;;6.90;;
6547;SDS011;3307;52.416;16.862;2023-06-10T00:09:04;8.15;;;6.82;;
6547;SDS011;3307;52.416;16.862;2023-06-10T00:11:30;9.43;;;7.47;;
6547;SDS011;3307;52.416;16.862;2023-06-10T00:13:59;8.32;;;7.53;;
6547;SDS011;3307;52.416;16.862;2023-06-10T00:16:24;8.98;;;7.68;;
6547;SDS011;3307;52.416;16.862;2023-06-10T00:18:50;10.27;;;8.10;;
6547;SDS011;3307;52.416;16.862;2023-06-10T00:21:21;10.60;;;8.80;;
6547;SDS011;3307;52.416;16.862;2023-06-10T00:23:46;10.75;;;8.15;;
6547;SDS011;3307;52.416;16.862;2023-06-10T00:26:12;9.25;;;8.35;;
6547;SDS011;3307;52.416;16.862;2023-06-10T00:28:37;9.27;;;7.90;;
6547;SDS011;3307;52.416;16.862;2023-06-10T00:31:03;9.40;;;8.40;;
6547;SDS011;3307;52.416;16.862;2023-06-10T00:33:29;9.63;;;8.20;;
6547;SDS011;3307;52.416;16.862;2023-06-10T00:35:55;9.77;;;8.70;;
6547;SDS011;3307;52.416;16.862;2023-06-10T00:38:20;11.60;;;8.60;;
6547;SDS011;3307;52.416;16.862;2023-06-10T00:40:45;8.30;;;7.50;;
6547;SDS011;3307;52.416;16.862;2023-06-10T00:43:11;8.43;;;7.60;;
6547;SDS011;3307;52.416;16.862;2023-06-10T00:45:36;9.20;;;8.30;;
6547;SDS011;3307;52.416;16.862;2023-06-10T00:48:02;9.13;;;8.13;;
6547;SDS011;3307;52.416;16.862;2023-06-10T00:50:28;9.13;;;8.20;;
6547;SDS011;3307;52.416;16.862;2023-06-10T00:52:54;12.27;;;8.02;;
6547;SDS011;3307;52.416;16.862;2023-06-10T00:55:20;11.30;;;8.00;;
6547;SDS011;3307;52.416;16.862;2023-06-10T00:57:46;11.87;;;7.70;;
6547;SDS011;3307;52.416;16.862;2023-06-10T01:00:13;10.77;;;7.55;;
6547;SDS011;3307;52.416;16.862;2023-06-10T01:02:40;11.02;;;7.70;;
6547;SDS011;3307;52.416;16.862;2023-06-10T01:05:06;9.65;;;7.95;;
6547;SDS011;3307;52.416;16.862;2023-06-10T01:10:34;8.38;;;7.47;;
6547;SDS011;3307;52.416;16.862;2023-06-10T01:13:03;8.05;;;7.28;;
6547;SDS011;3307;52.416;16.862;2023-06-10T01:15:33;9.98;;;7.53;;
6547;SDS011;3307;52.416;16.862;2023-06-10T01:18:00;11.57;;;7.72;;
6547;SDS011;3307;52.416;16.862;2023-06-10T01:20:28;9.13;;;7.60;;
6547;SDS011;3307;52.416;16.862;2023-06-10T01:22:55;10.30;;;7.17;;
6547;SDS011;3307;52.416;16.862;2023-06-10T01:25:23;10.43;;;8.45;;
6547;SDS011;3307;52.416;16.862;2023-06-10T01:28:10;9.30;;;7.32;;
6547;SDS011;3307;52.416;16.862;2023-06-10T01:30:42;10.68;;;7.75;;
6547;SDS011;3307;52.416;16.862;2023-06-10T01:33:12;8.00;;;7.20;;
6547;SDS011;3307;52.416;16.862;2023-06-10T01:35:42;11.00;;;7.75;;
6547;SDS011;3307;52.416;16.862;2023-06-10T01:38:08;8.87;;;7.60;;
6547;SDS011;3307;52.416;16.862;2023-06-10T01:40:34;10.98;;;6.72;;
6547;SDS011;3307;52.416;16.862;2023-06-10T01:43:01;10.40;;;7.22;;
6547;SDS011;3307;52.416;16.862;2023-06-10T01:45:27;8.20;;;7.40;;
6547;SDS011;3307;52.416;16.862;2023-06-10T01:47:52;7.80;;;7.00;;
6547;SDS011;3307;52.416;16.862;2023-06-10T01:50:17;9.23;;;7.50;;
6547;SDS011;3307;52.416;16.862;2023-06-10T01:52:43;8.10;;;7.30;;
6547;SDS011;3307;52.416;16.862;2023-06-10T01:55:08;8.53;;;7.10;;
6547;SDS011;3307;52.416;16.862;2023-06-10T01:57:34;10.70;;;8.13;;
6547;SDS011;3307;52.416;16.862;2023-06-10T01:59:59;10.75;;;7.35;;
6547;SDS011;3307;52.416;16.862;2023-06-10T02:02:24;8.60;;;6.90;;
6547;SDS011;3307;52.416;16.862;2023-06-10T02:04:50;11.33;;;6.80;;
6547;SDS011;3307;52.416;16.862;2023-06-10T02:07:15;8.83;;;6.97;;
6547;SDS011;3307;52.416;16.862;2023-06-10T02:09:41;8.40;;;6.60;;
6547;SDS011;3307;52.416;16.862;2023-06-10T02:12:06;10.15;;;7.18;;
6547;SDS011;3307;52.416;16.862;2023-06-10T02:14:32;11.10;;;7.63;;
6547;SDS011;3307;52.416;16.862;2023-06-10T02:16:58;9.40;;;8.00;;
6547;SDS011;3307;52.416;16.862;2023-06-10T02:19:23;10.57;;;7.47;;
6547;SDS011;3307;52.416;16.862;2023-06-10T02:21:50;8.57;;;7.38;;
6547;SDS011;3307;52.416;16.862;2023-06-10T02:24:15;9.63;;;7.10;;
6547;SDS011;3307;52.416;16.862;2023-06-10T02:26:41;8.80;;;7.32;;
6547;SDS011;3307;52.416;16.862;2023-06-10T02:29:06;8.57;;;7.67;;
6547;SDS011;3307;52.416;16.862;2023-06-10T02:31:32;9.27;;;7.60;;
6547;SDS011;3307;52.416;16.862;2023-06-10T02:34:00;14.15;;;7.70;;
6547;SDS011;3307;52.416;16.862;2023-06-10T02:36:26;8.95;;;7.18;;
6547;SDS011;3307;52.416;16.862;2023-06-10T02:38:53;8.43;;;7.53;;
6547;SDS011;3307;52.416;16.862;2023-06-10T02:41:18;7.50;;;6.80;;
6547;SDS011;3307;52.416;16.862;2023-06-10T02:43:44;10.03;;;7.90;;
6547;SDS011;3307;52.416;16.862;2023-06-10T02:46:09;10.87;;;7.10;;
6547;SDS011;3307;52.416;16.862;2023-06-10T02:48:43;9.50;;;7.10;;
6547;SDS011;3307;52.416;16.862;2023-06-10T02:51:09;11.38;;;7.35;;
6547;SDS011;3307;52.416;16.862;2023-06-10T02:53:35;8.00;;;7.20;;
6547;SDS011;3307;52.416;16.862;2023-06-10T02:56:01;9.90;;;7.00;;
6547;SDS011;3307;52.416;16.862;2023-06-10T02:58:26;9.83;;;7.30;;
6547;SDS011;3307;52.416;16.862;2023-06-10T03:00:52;9.30;;;7.50;;
6547;SDS011;3307;52.416;16.862;2023-06-10T03:03:17;7.97;;;7.00;;
6547;SDS011;3307;52.416;16.862;2023-06-10T03:05:43;10.77;;;7.35;;
6547;SDS011;3307;52.416;16.862;2023-06-10T03:08:08;7.80;;;6.80;;
6547;SDS011;3307;52.416;16.862;2023-06-10T03:10:34;7.77;;;6.57;;
6547;SDS011;3307;52.416;16.862;2023-06-10T03:12:59;10.57;;;6.70;;
6547;SDS011;3307;52.416;16.862;2023-06-10T03:15:25;7.10;;;6.40;;
6547;SDS011;3307;52.416;16.862;2023-06-10T03:17:50;11.60;;;7.30;;
6547;SDS011;3307;52.416;16.862;2023-06-10T03:20:16;10.10;;;6.67;;
6547;SDS011;3307;52.416;16.862;2023-06-10T03:22:41;8.27;;;7.33;;
6547;SDS011;3307;52.416;16.862;2023-06-10T03:25:07;11.00;;;6.60;;
6547;SDS011;3307;52.416;16.862;2023-06-10T03:27:38;11.00;;;7.40;;
6547;SDS011;3307;52.416;16.862;2023-06-10T03:30:07;11.32;;;7.15;;
6547;SDS011;3307;52.416;16.862;2023-06-10T03:32:34;8.48;;;6.90;;
6547;SDS011;3307;52.416;16.862;2023-06-10T03:35:00;10.05;;;7.05;;
6547;SDS011;3307;52.416;16.862;2023-06-10T03:37:26;9.18;;;6.85;;
6547;SDS011;3307;52.416;16.862;2023-06-10T03:39:51;9.50;;;6.63;;
6547;SDS011;3307;52.416;16.862;2023-06-10T03:42:17;8.90;;;7.10;;
6547;SDS011;3307;52.416;16.862;2023-06-10T03:44:42;9.17;;;7.10;;
6547;SDS011;3307;52.416;16.862;2023-06-10T03:47:07;8.50;;;6.55;;
6547;SDS011;3307;52.416;16.862;2023-06-10T03:49:33;9.10;;;7.22;;
6547;SDS011;3307;52.416;16.862;2023-06-10T03:51:58;9.03;;;6.30;;
6547;SDS011;3307;52.416;16.862;2023-06-10T03:54:24;9.27;;;6.40;;
6547;SDS011;3307;52.416;16.862;2023-06-10T03:56:50;9.10;;;6.10;;
6547;SDS011;3307;52.416;16.862;2023-06-10T03:59:15;7.80;;;6.53;;
6547;SDS011;3307;52.416;16.862;2023-06-10T04:01:41;11.27;;;6.50;;
6547;SDS011;3307;52.416;16.862;2023-06-10T04:04:06;8.00;;;6.27;;
6547;SDS011;3307;52.416;16.862;2023-06-10T04:06:32;7.63;;;5.90;;
6547;SDS011;3307;52.416;16.862;2023-06-10T04:08:57;8.70;;;6.60;;
6547;SDS011;3307;52.416;16.862;2023-06-10T04:11:24;6.80;;;5.95;;
6547;SDS011;3307;52.416;16.862;2023-06-10T04:13:49;7.20;;;5.53;;
6547;SDS011;3307;52.416;16.862;2023-06-10T04:16:15;6.97;;;6.07;;
6547;SDS011;3307;52.416;16.862;2023-06-10T04:18:41;7.60;;;6.10;;
6547;SDS011;3307;52.416;16.862;2023-06-10T04:21:07;8.50;;;5.80;;
6547;SDS011;3307;52.416;16.862;2023-06-10T04:23:34;6.63;;;5.60;;
6547;SDS011;3307;52.416;16.862;2023-06-10T04:26:00;8.25;;;5.90;;
6547;SDS011;3307;52.416;16.862;2023-06-10T04:28:25;8.35;;;6.32;;
6547;SDS011;3307;52.416;16.862;2023-06-10T04:30:51;7.53;;;5.70;;
6547;SDS011;3307;52.416;16.862;2023-06-10T04:33:18;8.13;;;5.85;;
6547;SDS011;3307;52.416;16.862;2023-06-10T04:35:43;7.80;;;6.30;;
6547;SDS011;3307;52.416;16.862;2023-06-10T04:38:09;7.90;;;6.20;;
6547;SDS011;3307;52.416;16.862;2023-06-10T04:40:35;8.03;;;6.47;;
6547;SDS011;3307;52.416;16.862;2023-06-10T04:43:00;9.60;;;6.38;;
6547;SDS011;3307;52.416;16.862;2023-06-10T04:45:25;8.37;;;6.90;;
6547;SDS011;3307;52.416;16.862;2023-06-10T04:47:51;8.20;;;6.40;;
6547;SDS011;3307;52.416;16.862;2023-06-10T04:50:16;9.03;;;6.93;;
6547;SDS011;3307;52.416;16.862;2023-06-10T04:52:42;10.10;;;6.80;;
6547;SDS011;3307;52.416;16.862;2023-06-10T04:55:07;18.67;;;7.10;;
6547;SDS011;3307;52.416;16.862;2023-06-10T04:57:33;8.32;;;6.40;;
6547;SDS011;3307;52.416;16.862;2023-06-10T04:59:59;9.50;;;6.30;;
6547;SDS011;3307;52.416;16.862;2023-06-10T05:02:24;7.10;;;5.87;;
6547;SDS011;3307;52.416;16.862;2023-06-10T05:04:50;7.80;;;6.95;;
6547;SDS011;3307;52.416;16.862;2023-06-10T05:07:15;8.90;;;5.70;;
6547;SDS011;3307;52.416;16.862;2023-06-10T05:09:41;8.10;;;5.93;;
6547;SDS011;3307;52.416;16.862;2023-06-10T05:12:06;9.60;;;6.30;;
6547;SDS011;3307;52.416;16.862;2023-06-10T05:14:32;8.60;;;6.40;;
6547;SDS011;3307;52.416;16.862;2023-06-10T05:16:57;7.33;;;5.50;;
6547;SDS011;3307;52.416;16.862;2023-06-10T05:19:23;8.20;;;6.10;;
6547;SDS011;3307;52.416;16.862;2023-06-10T05:21:48;7.70;;;6.13;;
6547;SDS011;3307;52.416;16.862;2023-06-10T05:24:14;6.60;;;5.60;;
6547;SDS011;3307;52.416;16.862;2023-06-10T05:26:39;7.73;;;5.60;;
6547;SDS011;3307;52.416;16.862;2023-06-10T05:29:06;7.45;;;5.15;;
6547;SDS011;3307;52.416;16.862;2023-06-10T05:31:33;7.80;;;5.70;;
6547;SDS011;3307;52.416;16.862;2023-06-10T05:33:58;7.20;;;5.70;;
6547;SDS011;3307;52.416;16.862;2023-06-10T05:36:23;9.27;;;6.03;;
6547;SDS011;3307;52.416;16.862;2023-06-10T05:38:51;6.63;;;5.10;;
6547;SDS011;3307;52.416;16.862;2023-06-10T05:41:16;9.80;;;5.90;;
6547;SDS011;3307;52.416;16.862;2023-06-10T05:43:42;6.63;;;5.63;;
6547;SDS011;3307;52.416;16.862;2023-06-10T05:46:07;7.78;;;5.80;;
6547;SDS011;3307;52.416;16.862;2023-06-10T05:48:32;6.63;;;5.10;;
6547;SDS011;3307;52.416;16.862;2023-06-10T05:50:58;7.27;;;5.20;;
6547;SDS011;3307;52.416;16.862;2023-06-10T05:53:23;6.85;;;5.25;;
6547;SDS011;3307;52.416;16.862;2023-06-10T05:55:49;9.47;;;5.93;;
6547;SDS011;3307;52.416;16.862;2023-06-10T05:58:14;7.73;;;5.10;;
6547;SDS011;3307;52.416;16.862;2023-06-10T06:00:40;5.10;;;4.60;;
6547;SDS011;3307;52.416;16.862;2023-06-10T06:03:06;7.75;;;5.30;;
6547;SDS011;3307;52.416;16.862;2023-06-10T06:05:33;6.88;;;4.88;;
6547;SDS011;3307;52.416;16.862;2023-06-10T06:08:03;7.18;;;4.70;;
6547;SDS011;3307;52.416;16.862;2023-06-10T06:10:35;5.60;;;4.43;;
6547;SDS011;3307;52.416;16.862;2023-06-10T06:13:01;6.70;;;5.03;;
6547;SDS011;3307;52.416;16.862;2023-06-10T06:15:26;9.03;;;5.87;;
6547;SDS011;3307;52.416;16.862;2023-06-10T06:17:52;7.77;;;5.10;;
6547;SDS011;3307;52.416;16.862;2023-06-10T06:20:18;6.37;;;4.70;;
6547;SDS011;3307;52.416;16.862;2023-06-10T06:22:44;6.20;;;5.00;;
6547;SDS011;3307;52.416;16.862;2023-06-10T06:25:09;7.05;;;5.00;;
6547;SDS011;3307;52.416;16.862;2023-06-10T06:27:35;5.73;;;4.60;;
6547;SDS011;3307;52.416;16.862;2023-06-10T06:30:00;6.37;;;5.50;;
6547;SDS011;3307;52.416;16.862;2023-06-10T06:32:26;7.87;;;4.93;;
6547;SDS011;3307;52.416;16.862;2023-06-10T06:34:52;6.90;;;4.80;;
6547;SDS011;3307;52.416;16.862;2023-06-10T06:37:22;7.22;;;4.63;;
6547;SDS011;3307;52.416;16.862;2023-06-10T06:39:52;9.70;;;5.20;;
6547;SDS011;3307;52.416;16.862;2023-06-10T06:42:18;7.72;;;5.30;;
6547;SDS011;3307;52.416;16.862;2023-06-10T06:44:44;6.90;;;5.40;;
6547;SDS011;3307;52.416;16.862;2023-06-10T06:47:09;7.30;;;5.00;;
6547;SDS011;3307;52.416;16.862;2023-06-10T06:49:35;7.67;;;4.80;;
6547;SDS011;3307;52.416;16.862;2023-06-10T06:52:00;10.65;;;5.30;;
6547;SDS011;3307;52.416;16.862;2023-06-10T06:54:28;6.78;;;4.75;;
6547;SDS011;3307;52.416;16.862;2023-06-10T06:56:54;6.13;;;4.57;;
6547;SDS011;3307;52.416;16.862;2023-06-10T06:59:19;6.85;;;4.70;;
6547;SDS011;3307;52.416;16.862;2023-06-10T07:01:45;6.30;;;4.65;;
6547;SDS011;3307;52.416;16.862;2023-06-10T07:04:11;5.40;;;4.70;;
6547;SDS011;3307;52.416;16.862;2023-06-10T07:06:37;8.32;;;5.20;;
6547;SDS011;3307;52.416;16.862;2023-06-10T07:09:03;5.85;;;4.70;;
6547;SDS011;3307;52.416;16.862;2023-06-10T07:11:29;6.85;;;4.93;;
6547;SDS011;3307;52.416;16.862;2023-06-10T07:13:55;8.98;;;5.30;;
6547;SDS011;3307;52.416;16.862;2023-06-10T07:16:20;8.57;;;5.75;;
6547;SDS011;3307;52.416;16.862;2023-06-10T07:18:46;7.63;;;5.25;;
6547;SDS011;3307;52.416;16.862;2023-06-10T07:21:12;6.43;;;5.03;;
6547;SDS011;3307;52.416;16.862;2023-06-10T07:23:37;7.27;;;4.93;;
6547;SDS011;3307;52.416;16.862;2023-06-10T07:26:03;9.30;;;5.93;;
6547;SDS011;3307;52.416;16.862;2023-06-10T07:28:28;7.00;;;5.30;;
6547;SDS011;3307;52.416;16.862;2023-06-10T07:30:54;9.95;;;5.30;;
6547;SDS011;3307;52.416;16.862;2023-06-10T07:33:19;7.87;;;5.10;;
6547;SDS011;3307;52.416;16.862;2023-06-10T07:35:45;5.40;;;4.70;;
6547;SDS011;3307;52.416;16.862;2023-06-10T07:38:10;7.60;;;5.22;;
6547;SDS011;3307;52.416;16.862;2023-06-10T07:40:36;9.10;;;5.10;;
6547;SDS011;3307;52.416;16.862;2023-06-10T07:43:01;5.37;;;4.80;;
6547;SDS011;3307;52.416;16.862;2023-06-10T07:45:27;7.57;;;5.75;;
6547;SDS011;3307;52.416;16.862;2023-06-10T07:47:52;7.93;;;5.30;;
6547;SDS011;3307;52.416;16.862;2023-06-10T07:50:20;6.60;;;5.50;;
6547;SDS011;3307;52.416;16.862;2023-06-10T07:52:45;9.10;;;5.30;;
6547;SDS011;3307;52.416;16.862;2023-06-10T07:55:11;8.40;;;5.03;;
6547;SDS011;3307;52.416;16.862;2023-06-10T07:57:36;5.90;;;5.03;;
6547;SDS011;3307;52.416;16.862;2023-06-10T08:00:03;7.43;;;5.45;;
6547;SDS011;3307;52.416;16.862;2023-06-10T08:02:29;9.15;;;5.15;;
6547;SDS011;3307;52.416;16.862;2023-06-10T08:04:55;5.95;;;4.53;;
6547;SDS011;3307;52.416;16.862;2023-06-10T08:07:21;8.40;;;4.80;;
6547;SDS011;3307;52.416;16.862;2023-06-10T08:09:47;4.90;;;4.15;;
6547;SDS011;3307;52.416;16.862;2023-06-10T08:12:12;6.43;;;4.95;;
6547;SDS011;3307;52.416;16.862;2023-06-10T08:14:38;7.03;;;5.10;;
6547;SDS011;3307;52.416;16.862;2023-06-10T08:17:04;6.88;;;4.82;;
6547;SDS011;3307;52.416;16.862;2023-06-10T08:19:30;4.95;;;4.32;;
6547;SDS011;3307;52.416;16.862;2023-06-10T08:21:56;8.27;;;4.77;;
6547;SDS011;3307;52.416;16.862;2023-06-10T08:24:21;7.80;;;4.80;;
6547;SDS011;3307;52.416;16.862;2023-06-10T08:26:47;6.85;;;4.50;;
6547;SDS011;3307;52.416;16.862;2023-06-10T08:29:12;7.83;;;4.67;;
6547;SDS011;3307;52.416;16.862;2023-06-10T08:31:41;6.10;;;4.90;;
6547;SDS011;3307;52.416;16.862;2023-06-10T08:34:07;8.65;;;4.30;;
6547;SDS011;3307;52.416;16.862;2023-06-10T08:36:33;5.70;;;4.27;;
6547;SDS011;3307;52.416;16.862;2023-06-10T08:38:58;4.80;;;4.00;;
6547;SDS011;3307;52.416;16.862;2023-06-10T08:41:24;7.47;;;4.50;;
6547;SDS011;3307;52.416;16.862;2023-06-10T08:46:56;6.80;;;4.63;;
6547;SDS011;3307;52.416;16.862;2023-06-10T08:49:23;6.47;;;4.70;;
6547;SDS011;3307;52.416;16.862;2023-06-10T08:51:52;5.60;;;4.10;;
6547;SDS011;3307;52.416;16.862;2023-06-10T08:54:21;4.80;;;3.80;;
6547;SDS011;3307;52.416;16.862;2023-06-10T08:56:48;5.07;;;4.20;;
6547;SDS011;3307;52.416;16.862;2023-06-10T08:59:15;5.35;;;4.10;;
6547;SDS011;3307;52.416;16.862;2023-06-10T09:01:44;9.20;;;4.20;;
6547;SDS011;3307;52.416;16.862;2023-06-10T09:04:09;5.47;;;4.00;;
6547;SDS011;3307;52.416;16.862;2023-06-10T09:06:35;6.28;;;3.90;;
6547;SDS011;3307;52.416;16.862;2023-06-10T09:09:01;5.70;;;4.20;;
6547;SDS011;3307;52.416;16.862;2023-06-10T09:11:27;5.97;;;4.17;;
6547;SDS011;3307;52.416;16.862;2023-06-10T09:13:53;5.10;;;3.57;;
6547;SDS011;3307;52.416;16.862;2023-06-10T09:16:18;5.70;;;4.07;;
6547;SDS011;3307;52.416;16.862;2023-06-10T09:18:44;5.90;;;3.60;;
6547;SDS011;3307;52.416;16.862;2023-06-10T09:21:09;6.77;;;4.10;;
6547;SDS011;3307;52.416;16.862;2023-06-10T09:23:35;6.90;;;4.40;;
6547;SDS011;3307;52.416;16.862;2023-06-10T09:26:02;5.25;;;3.50;;
6547;SDS011;3307;52.416;16.862;2023-06-10T09:28:30;6.60;;;4.15;;
6547;SDS011;3307;52.416;16.862;2023-06-10T09:31:05;4.10;;;3.40;;
6547;SDS011;3307;52.416;16.862;2023-06-10T09:33:32;4.28;;;3.70;;
6547;SDS011;3307;52.416;16.862;2023-06-10T09:35:59;6.17;;;4.07;;
6547;SDS011;3307;52.416;16.862;2023-06-10T09:38:29;7.95;;;3.95;;
6547;SDS011;3307;52.416;16.862;2023-06-10T09:40:56;4.75;;;3.80;;
6547;SDS011;3307;52.416;16.862;2023-06-10T09:43:21;5.27;;;3.80;;
6547;SDS011;3307;52.416;16.862;2023-06-10T09:45:48;6.07;;;3.80;;
6547;SDS011;3307;52.416;16.862;2023-06-10T09:48:19;6.60;;;4.05;;
6547;SDS011;3307;52.416;16.862;2023-06-10T09:50:45;7.10;;;4.10;;
6547;SDS011;3307;52.416;16.862;2023-06-10T09:53:11;7.13;;;3.80;;
6547;SDS011;3307;52.416;16.862;2023-06-10T09:55:40;6.33;;;4.90;;
6547;SDS011;3307;52.416;16.862;2023-06-10T09:58:06;6.07;;;4.18;;
6547;SDS011;3307;52.416;16.862;2023-06-10T10:00:33;5.65;;;3.63;;
6547;SDS011;3307;52.416;16.862;2023-06-10T10:02:58;5.70;;;3.83;;
6547;SDS011;3307;52.416;16.862;2023-06-10T10:05:24;6.50;;;4.97;;
6547;SDS011;3307;52.416;16.862;2023-06-10T10:07:50;4.70;;;3.73;;
6547;SDS011;3307;52.416;16.862;2023-06-10T10:10:17;5.10;;;4.20;;
6547;SDS011;3307;52.416;16.862;2023-06-10T10:12:43;9.10;;;4.63;;
6547;SDS011;3307;52.416;16.862;2023-06-10T10:15:11;6.93;;;4.07;;
6547;SDS011;3307;52.416;16.862;2023-06-10T10:17:37;5.60;;;4.20;;
6547;SDS011;3307;52.416;16.862;2023-06-10T10:20:12;6.22;;;4.40;;
6547;SDS011;3307;52.416;16.862;2023-06-10T10:22:38;6.20;;;4.25;;
6547;SDS011;3307;52.416;16.862;2023-06-10T10:25:11;8.07;;;4.45;;
6547;SDS011;3307;52.416;16.862;2023-06-10T10:30:14;4.20;;;3.50;;
6547;SDS011;3307;52.416;16.862;2023-06-10T10:35:17;5.60;;;3.63;;
6547;SDS011;3307;52.416;16.862;2023-06-10T10:37:46;4.63;;;3.80;;
6547;SDS011;3307;52.416;16.862;2023-06-10T10:40:12;6.17;;;3.90;;
6547;SDS011;3307;52.416;16.862;2023-06-10T10:42:37;4.80;;;3.63;;
6547;SDS011;3307;52.416;16.862;2023-06-10T10:45:03;4.85;;;3.53;;
6547;SDS011;3307;52.416;16.862;2023-06-10T10:47:30;4.60;;;3.60;;
6547;SDS011;3307;52.416;16.862;2023-06-10T10:49:56;5.90;;;3.70;;
6547;SDS011;3307;52.416;16.862;2023-06-10T10:52:25;4.38;;;3.45;;
6547;SDS011;3307;52.416;16.862;2023-06-10T10:54:52;4.43;;;3.97;;
6547;SDS011;3307;52.416;16.862;2023-06-10T10:57:22;6.05;;;3.72;;
6547;SDS011;3307;52.416;16.862;2023-06-10T11:04:57;4.78;;;3.55;;
6547;SDS011;3307;52.416;16.862;2023-06-10T11:07:24;7.17;;;4.00;;
6547;SDS011;3307;52.416;16.862;2023-06-10T11:09:57;3.77;;;3.40;;
6547;SDS011;3307;52.416;16.862;2023-06-10T11:12:26;4.95;;;4.05;;
6547;SDS011;3307;52.416;16.862;2023-06-10T11:14:55;5.13;;;3.75;;
6547;SDS011;3307;52.416;16.862;2023-06-10T11:17:21;6.35;;;4.00;;
6547;SDS011;3307;52.416;16.862;2023-06-10T11:19:46;5.00;;;3.95;;
6547;SDS011;3307;52.416;16.862;2023-06-10T11:22:18;6.30;;;4.03;;
6547;SDS011;3307;52.416;16.862;2023-06-10T11:24:50;8.75;;;6.85;;
6547;SDS011;3307;52.416;16.862;2023-06-10T11:32:29;5.20;;;4.47;;
6547;SDS011;3307;52.416;16.862;2023-06-10T11:34:56;4.75;;;3.85;;
6547;SDS011;3307;52.416;16.862;2023-06-10T11:37:22;4.93;;;4.43;;
6547;SDS011;3307;52.416;16.862;2023-06-10T11:39:51;7.40;;;4.53;;
6547;SDS011;3307;52.416;16.862;2023-06-10T11:42:17;5.47;;;4.80;;
6547;SDS011;3307;52.416;16.862;2023-06-10T11:44:50;5.40;;;4.00;;
6547;SDS011;3307;52.416;16.862;2023-06-10T11:47:16;6.50;;;4.25;;
6547;SDS011;3307;52.416;16.862;2023-06-10T11:49:43;5.03;;;4.10;;
6547;SDS011;3307;52.416;16.862;2023-06-10T11:52:08;5.75;;;4.05;;
6547;SDS011;3307;52.416;16.862;2023-06-10T11:54:34;6.10;;;4.00;;
6547;SDS011;3307;52.416;16.862;2023-06-10T11:56:59;6.17;;;4.17;;
6547;SDS011;3307;52.416;16.862;2023-06-10T11:59:28;7.10;;;4.10;;
6547;SDS011;3307;52.416;16.862;2023-06-10T12:01:53;4.57;;;3.78;;
6547;SDS011;3307;52.416;16.862;2023-06-10T12:04:19;4.20;;;3.80;;
6547;SDS011;3307;52.416;16.862;2023-06-10T12:09:24;8.45;;;7.55;;
6547;SDS011;3307;52.416;16.862;2023-06-10T12:11:55;4.53;;;4.10;;
6547;SDS011;3307;52.416;16.862;2023-06-10T12:17:20;5.10;;;4.27;;
6547;SDS011;3307;52.416;16.862;2023-06-10T12:19:57;5.63;;;4.40;;
6547;SDS011;3307;52.416;16.862;2023-06-10T12:22:23;5.63;;;4.43;;
6547;SDS011;3307;52.416;16.862;2023-06-10T12:24:59;5.03;;;4.53;;
6547;SDS011;3307;52.416;16.862;2023-06-10T12:27:28;8.80;;;5.13;;
6547;SDS011;3307;52.416;16.862;2023-06-10T12:29:57;7.25;;;4.75;;
6547;SDS011;3307;52.416;16.862;2023-06-10T12:32:41;7.03;;;4.38;;
6547;SDS011;3307;52.416;16.862;2023-06-10T12:35:09;6.10;;;4.10;;
6547;SDS011;3307;52.416;16.862;2023-06-10T12:37:36;5.45;;;4.07;;
6547;SDS011;3307;52.416;16.862;2023-06-10T12:40:02;5.77;;;4.37;;
6547;SDS011;3307;52.416;16.862;2023-06-10T12:42:32;3.90;;;3.50;;
6547;SDS011;3307;52.416;16.862;2023-06-10T12:45:00;4.38;;;3.97;;
6547;SDS011;3307;52.416;16.862;2023-06-10T12:47:30;4.70;;;3.85;;
6547;SDS011;3307;52.416;16.862;2023-06-10T12:50:00;6.47;;;5.10;;
6547;SDS011;3307;52.416;16.862;2023-06-10T12:52:26;4.07;;;3.60;;
6547;SDS011;3307;52.416;16.862;2023-06-10T12:54:52;6.80;;;4.10;;
6547;SDS011;3307;52.416;16.862;2023-06-10T12:57:21;4.28;;;3.70;;
6547;SDS011;3307;52.416;16.862;2023-06-10T12:59:47;5.95;;;3.90;;
6547;SDS011;3307;52.416;16.862;2023-06-10T13:02:18;5.35;;;4.53;;
6547;SDS011;3307;52.416;16.862;2023-06-10T13:04:49;5.00;;;4.10;;
6547;SDS011;3307;52.416;16.862;2023-06-10T13:07:15;4.17;;;3.40;;
6547;SDS011;3307;52.416;16.862;2023-06-10T13:09:41;5.80;;;3.83;;
6547;SDS011;3307;52.416;16.862;2023-06-10T13:12:09;4.53;;;3.60;;
6547;SDS011;3307;52.416;16.862;2023-06-10T13:14:35;4.40;;;3.50;;
6547;SDS011;3307;52.416;16.862;2023-06-10T13:17:02;3.88;;;3.38;;
6547;SDS011;3307;52.416;16.862;2023-06-10T13:19:30;4.20;;;3.60;;
6547;SDS011;3307;52.416;16.862;2023-06-10T13:21:56;4.20;;;3.38;;
6547;SDS011;3307;52.416;16.862;2023-06-10T13:24:21;6.90;;;4.47;;
6547;SDS011;3307;52.416;16.862;2023-06-10T13:26:47;4.22;;;3.65;;
6547;SDS011;3307;52.416;16.862;2023-06-10T13:29:13;4.43;;;3.85;;
6547;SDS011;3307;52.416;16.862;2023-06-10T13:31:39;5.32;;;3.58;;
6547;SDS011;3307;52.416;16.862;2023-06-10T13:34:05;5.18;;;4.20;;
6547;SDS011;3307;52.416;16.862;2023-06-10T13:36:31;5.65;;;3.70;;
6547;SDS011;3307;52.416;16.862;2023-06-10T13:38:57;5.40;;;3.70;;
6547;SDS011;3307;52.416;16.862;2023-06-10T13:41:22;4.10;;;3.70;;
6547;SDS011;3307;52.416;16.862;2023-06-10T13:43:47;5.60;;;3.87;;
6547;SDS011;3307;52.416;16.862;2023-06-10T13:46:13;3.53;;;3.22;;
6547;SDS011;3307;52.416;16.862;2023-06-10T13:48:38;5.60;;;3.37;;
6547;SDS011;3307;52.416;16.862;2023-06-10T13:51:04;4.20;;;3.13;;
6547;SDS011;3307;52.416;16.862;2023-06-10T13:53:29;5.30;;;3.30;;
6547;SDS011;3307;52.416;16.862;2023-06-10T13:55:55;4.20;;;3.40;;
6547;SDS011;3307;52.416;16.862;2023-06-10T13:58:20;4.80;;;3.40;;
6547;SDS011;3307;52.416;16.862;2023-06-10T14:00:45;3.93;;;3.53;;
6547;SDS011;3307;52.416;16.862;2023-06-10T14:03:12;4.00;;;3.50;;
6547;SDS011;3307;52.416;16.862;2023-06-10T14:05:37;5.07;;;3.63;;
6547;SDS011;3307;52.416;16.862;2023-06-10T14:08:04;7.18;;;3.70;;
6547;SDS011;3307;52.416;16.862;2023-06-10T14:10:29;3.72;;;3.40;;
6547;SDS011;3307;52.416;16.862;2023-06-10T14:12:55;4.20;;;3.20;;
6547;SDS011;3307;52.416;16.862;2023-06-10T14:15:20;4.70;;;3.28;;
6547;SDS011;3307;52.416;16.862;2023-06-10T14:17:46;4.10;;;3.70;;
6547;SDS011;3307;52.416;16.862;2023-06-10T14:20:11;4.47;;;2.90;;
6547;SDS011;3307;52.416;16.862;2023-06-10T14:22:37;4.60;;;3.77;;
6547;SDS011;3307;52.416;16.862;2023-06-10T14:25:02;6.83;;;3.17;;
6547;SDS011;3307;52.416;16.862;2023-06-10T14:27:28;4.25;;;2.90;;
6547;SDS011;3307;52.416;16.862;2023-06-10T14:29:53;3.17;;;2.87;;
6547;SDS011;3307;52.416;16.862;2023-06-10T14:32:19;3.10;;;2.63;;
6547;SDS011;3307;52.416;16.862;2023-06-10T14:34:44;3.53;;;3.22;;
6547;SDS011;3307;52.416;16.862;2023-06-10T14:37:11;3.10;;;2.80;;
6547;SDS011;3307;52.416;16.862;2023-06-10T14:39:37;4.30;;;2.77;;
6547;SDS011;3307;52.416;16.862;2023-06-10T14:42:02;3.53;;;3.00;;
6547;SDS011;3307;52.416;16.862;2023-06-10T14:44:28;3.23;;;2.60;;
6547;SDS011;3307;52.416;16.862;2023-06-10T14:46:54;3.55;;;2.60;;
6547;SDS011;3307;52.416;16.862;2023-06-10T14:49:19;3.07;;;2.73;;
6547;SDS011;3307;52.416;16.862;2023-06-10T14:51:45;3.20;;;2.70;;
6547;SDS011;3307;52.416;16.862;2023-06-10T14:54:10;4.40;;;3.03;;
6547;SDS011;3307;52.416;16.862;2023-06-10T14:56:36;3.20;;;2.90;;
6547;SDS011;3307;52.416;16.862;2023-06-10T14:59:01;3.50;;;3.20;;
6547;SDS011;3307;52.416;16.862;2023-06-10T15:01:27;5.47;;;3.23;;
6547;SDS011;3307;52.416;16.862;2023-06-10T15:03:52;4.55;;;2.90;;
6547;SDS011;3307;52.416;16.862;2023-06-10T15:06:17;7.35;;;3.00;;
6547;SDS011;3307;52.416;16.862;2023-06-10T15:08:46;3.70;;;2.88;;
6547;SDS011;3307;52.416;16.862;2023-06-10T15:11:13;5.40;;;3.20;;
6547;SDS011;3307;52.416;16.862;2023-06-10T15:13:39;3.60;;;3.00;;
6547;SDS011;3307;52.416;16.862;2023-06-10T15:16:05;6.20;;;3.00;;
6547;SDS011;3307;52.416;16.862;2023-06-10T15:18:31;4.35;;;2.90;;
6547;SDS011;3307;52.416;16.862;2023-06-10T15:20:56;4.07;;;2.80;;
6547;SDS011;3307;52.416;16.862;2023-06-10T15:23:21;3.53;;;2.70;;